sensor_id;sensor_type;location;lat;lon;timestamp;P1;durP1;ratioP1;P2;durP2;ratioP2
40997;SDS011;26740;45.944;12.480;2023-04-03T00:01:06;9.10;;;4.88;;
40997;SDS011;26740;45.944;12.480;2023-04-03T00:03:32;9.95;;;4.57;;
40997;SDS011;26740;45.944;12.480;2023-04-03T00:05:58;10.15;;;4.78;;
40997;SDS011;26740;45.944;12.480;2023-04-03T00:08:24;9.88;;;5.72;;
40997;SDS011;26740;45.944;12.480;2023-04-03T00:10:50;8.77;;;4.70;;
40997;SDS011;26740;45.944;12.480;2023-04-03T00:13:16;5.22;;;3.75;;
40997;SDS011;26740;45.944;12.480;2023-04-03T00:15:42;9.90;;;4.80;;
40997;SDS011;26740;45.944;12.480;2023-04-03T00:18:07;7.75;;;5.78;;
40997;SDS011;26740;45.944;12.480;2023-04-03T00:20:33;7.38;;;5.10;;
40997;SDS011;26740;45.944;12.480;2023-04-03T00:22:59;10.80;;;5.68;;
40997;SDS011;26740;45.944;12.480;2023-04-03T00:25:25;9.18;;;4.40;;
40997;SDS011;26740;45.944;12.480;2023-04-03T00:27:51;5.93;;;4.40;;
40997;SDS011;26740;45.944;12.480;2023-04-03T00:30:17;6.38;;;4.78;;
40997;SDS011;26740;45.944;12.480;2023-04-03T00:32:44;8.45;;;5.20;;
40997;SDS011;26740;45.944;12.480;2023-04-03T00:35:10;7.47;;;5.00;;
40997;SDS011;26740;45.944;12.480;2023-04-03T00:37:36;9.43;;;5.18;;
40997;SDS011;26740;45.944;12.480;2023-04-03T00:40:02;8.52;;;4.88;;
40997;SDS011;26740;45.944;12.480;2023-04-03T00:42:28;13.43;;;5.15;;
40997;SDS011;26740;45.944;12.480;2023-04-03T00:47:23;7.63;;;4.90;;
40997;SDS011;26740;45.944;12.480;2023-04-03T00:49:50;7.95;;;4.97;;
40997;SDS011;26740;45.944;12.480;2023-04-03T00:52:19;8.85;;;4.68;;
40997;SDS011;26740;45.944;12.480;2023-04-03T00:54:48;6.50;;;4.45;;
40997;SDS011;26740;45.944;12.480;2023-04-03T00:57:17;5.88;;;4.18;;
40997;SDS011;26740;45.944;12.480;2023-04-03T00:59:44;8.90;;;4.80;;
40997;SDS011;26740;45.944;12.480;2023-04-03T01:02:14;6.72;;;4.35;;
40997;SDS011;26740;45.944;12.480;2023-04-03T01:04:41;7.70;;;5.55;;
40997;SDS011;26740;45.944;12.480;2023-04-03T01:07:12;6.30;;;4.30;;
40997;SDS011;26740;45.944;12.480;2023-04-03T01:09:42;9.65;;;5.28;;
40997;SDS011;26740;45.944;12.480;2023-04-03T01:12:20;11.05;;;5.10;;
40997;SDS011;26740;45.944;12.480;2023-04-03T01:14:59;9.10;;;4.43;;
40997;SDS011;26740;45.944;12.480;2023-04-03T01:17:36;6.93;;;4.40;;
40997;SDS011;26740;45.944;12.480;2023-04-03T01:23:06;8.05;;;5.45;;
40997;SDS011;26740;45.944;12.480;2023-04-03T01:25:55;9.88;;;6.00;;
40997;SDS011;26740;45.944;12.480;2023-04-03T01:28:26;12.70;;;6.05;;
40997;SDS011;26740;45.944;12.480;2023-04-03T01:33:42;10.02;;;5.13;;
40997;SDS011;26740;45.944;12.480;2023-04-03T01:36:08;12.07;;;5.45;;
40997;SDS011;26740;45.944;12.480;2023-04-03T01:38:34;5.68;;;4.25;;
40997;SDS011;26740;45.944;12.480;2023-04-03T01:41:00;8.70;;;4.50;;
40997;SDS011;26740;45.944;12.480;2023-04-03T01:43:25;9.55;;;5.43;;
40997;SDS011;26740;45.944;12.480;2023-04-03T01:45:51;7.03;;;4.30;;
40997;SDS011;26740;45.944;12.480;2023-04-03T01:48:19;5.35;;;3.58;;
40997;SDS011;26740;45.944;12.480;2023-04-03T01:50:45;6.68;;;4.20;;
40997;SDS011;26740;45.944;12.480;2023-04-03T01:53:11;8.23;;;4.10;;
40997;SDS011;26740;45.944;12.480;2023-04-03T01:55:36;7.38;;;4.10;;
40997;SDS011;26740;45.944;12.480;2023-04-03T01:58:02;7.95;;;4.70;;
40997;SDS011;26740;45.944;12.480;2023-04-03T02:00:27;11.35;;;4.25;;
40997;SDS011;26740;45.944;12.480;2023-04-03T02:02:53;6.63;;;4.53;;
40997;SDS011;26740;45.944;12.480;2023-04-03T02:05:18;6.30;;;3.95;;
40997;SDS011;26740;45.944;12.480;2023-04-03T02:07:44;9.85;;;4.30;;
40997;SDS011;26740;45.944;12.480;2023-04-03T02:10:10;6.30;;;4.32;;
40997;SDS011;26740;45.944;12.480;2023-04-03T02:12:35;8.05;;;5.15;;
40997;SDS011;26740;45.944;12.480;2023-04-03T02:15:01;5.88;;;3.53;;
40997;SDS011;26740;45.944;12.480;2023-04-03T02:17:26;6.85;;;4.40;;
40997;SDS011;26740;45.944;12.480;2023-04-03T02:19:52;5.15;;;3.90;;
40997;SDS011;26740;45.944;12.480;2023-04-03T02:22:17;7.72;;;3.60;;
40997;SDS011;26740;45.944;12.480;2023-04-03T02:24:44;9.20;;;4.15;;
40997;SDS011;26740;45.944;12.480;2023-04-03T02:27:09;10.75;;;4.00;;
40997;SDS011;26740;45.944;12.480;2023-04-03T02:29:35;7.28;;;3.67;;
40997;SDS011;26740;45.944;12.480;2023-04-03T02:32:00;6.85;;;3.90;;
40997;SDS011;26740;45.944;12.480;2023-04-03T02:34:26;6.43;;;4.15;;
40997;SDS011;26740;45.944;12.480;2023-04-03T02:36:51;6.80;;;3.88;;
40997;SDS011;26740;45.944;12.480;2023-04-03T02:39:17;12.85;;;4.00;;
40997;SDS011;26740;45.944;12.480;2023-04-03T02:41:42;11.00;;;4.03;;
40997;SDS011;26740;45.944;12.480;2023-04-03T02:44:09;4.28;;;3.38;;
40997;SDS011;26740;45.944;12.480;2023-04-03T02:46:35;6.25;;;3.65;;
40997;SDS011;26740;45.944;12.480;2023-04-03T02:49:01;6.28;;;3.88;;
40997;SDS011;26740;45.944;12.480;2023-04-03T02:51:27;4.13;;;2.78;;
40997;SDS011;26740;45.944;12.480;2023-04-03T02:53:53;5.15;;;3.17;;
40997;SDS011;26740;45.944;12.480;2023-04-03T02:56:18;5.80;;;3.25;;
40997;SDS011;26740;45.944;12.480;2023-04-03T02:58:45;8.80;;;4.10;;
40997;SDS011;26740;45.944;12.480;2023-04-03T03:01:11;5.32;;;3.22;;
40997;SDS011;26740;45.944;12.480;2023-04-03T03:03:37;5.45;;;3.38;;
40997;SDS011;26740;45.944;12.480;2023-04-03T03:06:03;6.72;;;3.90;;
40997;SDS011;26740;45.944;12.480;2023-04-03T03:08:34;5.43;;;3.45;;
40997;SDS011;26740;45.944;12.480;2023-04-03T03:11:00;5.03;;;3.30;;
40997;SDS011;26740;45.944;12.480;2023-04-03T03:13:26;8.15;;;2.72;;
40997;SDS011;26740;45.944;12.480;2023-04-03T03:15:51;4.95;;;3.20;;
40997;SDS011;26740;45.944;12.480;2023-04-03T03:18:17;4.65;;;3.17;;
40997;SDS011;26740;45.944;12.480;2023-04-03T03:20:43;6.32;;;3.28;;
40997;SDS011;26740;45.944;12.480;2023-04-03T03:23:08;8.13;;;3.33;;
40997;SDS011;26740;45.944;12.480;2023-04-03T03:25:37;4.18;;;3.17;;
40997;SDS011;26740;45.944;12.480;2023-04-03T03:28:06;4.18;;;2.63;;
40997;SDS011;26740;45.944;12.480;2023-04-03T03:30:32;3.53;;;2.90;;
40997;SDS011;26740;45.944;12.480;2023-04-03T03:32:58;3.58;;;2.85;;
40997;SDS011;26740;45.944;12.480;2023-04-03T03:35:23;6.82;;;3.22;;
40997;SDS011;26740;45.944;12.480;2023-04-03T03:37:49;3.17;;;2.72;;
40997;SDS011;26740;45.944;12.480;2023-04-03T03:40:15;7.20;;;3.00;;
40997;SDS011;26740;45.944;12.480;2023-04-03T03:42:40;4.07;;;2.50;;
40997;SDS011;26740;45.944;12.480;2023-04-03T03:45:06;4.07;;;2.85;;
40997;SDS011;26740;45.944;12.480;2023-04-03T03:47:32;3.97;;;2.78;;
40997;SDS011;26740;45.944;12.480;2023-04-03T03:49:57;5.55;;;2.97;;
40997;SDS011;26740;45.944;12.480;2023-04-03T03:52:23;10.10;;;2.47;;
40997;SDS011;26740;45.944;12.480;2023-04-03T03:54:48;4.97;;;2.75;;
40997;SDS011;26740;45.944;12.480;2023-04-03T03:57:14;4.88;;;2.40;;
40997;SDS011;26740;45.944;12.480;2023-04-03T03:59:40;7.47;;;2.83;;
40997;SDS011;26740;45.944;12.480;2023-04-03T04:02:07;4.05;;;2.85;;
40997;SDS011;26740;45.944;12.480;2023-04-03T04:04:33;3.55;;;2.60;;
40997;SDS011;26740;45.944;12.480;2023-04-03T04:06:58;5.65;;;3.05;;
40997;SDS011;26740;45.944;12.480;2023-04-03T04:09:26;5.32;;;2.65;;
40997;SDS011;26740;45.944;12.480;2023-04-03T04:11:52;6.80;;;3.30;;
40997;SDS011;26740;45.944;12.480;2023-04-03T04:14:18;4.68;;;2.75;;
40997;SDS011;26740;45.944;12.480;2023-04-03T04:16:45;7.70;;;2.65;;
40997;SDS011;26740;45.944;12.480;2023-04-03T04:19:12;4.30;;;2.40;;
40997;SDS011;26740;45.944;12.480;2023-04-03T04:21:37;5.18;;;2.50;;
40997;SDS011;26740;45.944;12.480;2023-04-03T04:24:03;4.45;;;2.15;;
40997;SDS011;26740;45.944;12.480;2023-04-03T04:26:29;4.75;;;2.05;;
40997;SDS011;26740;45.944;12.480;2023-04-03T04:28:54;2.25;;;1.85;;
40997;SDS011;26740;45.944;12.480;2023-04-03T04:31:20;3.17;;;2.50;;
40997;SDS011;26740;45.944;12.480;2023-04-03T04:33:45;2.92;;;1.73;;
40997;SDS011;26740;45.944;12.480;2023-04-03T04:36:11;4.90;;;2.60;;
40997;SDS011;26740;45.944;12.480;2023-04-03T04:38:36;4.68;;;2.55;;
40997;SDS011;26740;45.944;12.480;2023-04-03T04:41:03;6.53;;;2.63;;
40997;SDS011;26740;45.944;12.480;2023-04-03T04:43:29;5.93;;;2.78;;
40997;SDS011;26740;45.944;12.480;2023-04-03T04:46:28;8.27;;;3.78;;
40997;SDS011;26740;45.944;12.480;2023-04-03T04:48:46;8.95;;;3.08;;
40997;SDS011;26740;45.944;12.480;2023-04-03T04:51:14;5.53;;;2.53;;
40997;SDS011;26740;45.944;12.480;2023-04-03T04:53:40;5.00;;;2.55;;
40997;SDS011;26740;45.944;12.480;2023-04-03T04:56:06;6.18;;;2.95;;
40997;SDS011;26740;45.944;12.480;2023-04-03T04:58:32;4.38;;;2.30;;
40997;SDS011;26740;45.944;12.480;2023-04-03T05:00:58;2.38;;;1.67;;
40997;SDS011;26740;45.944;12.480;2023-04-03T05:03:28;3.42;;;2.33;;
40997;SDS011;26740;45.944;12.480;2023-04-03T05:05:54;5.05;;;2.78;;
40997;SDS011;26740;45.944;12.480;2023-04-03T05:08:20;4.43;;;2.15;;
40997;SDS011;26740;45.944;12.480;2023-04-03T05:10:45;4.78;;;3.45;;
40997;SDS011;26740;45.944;12.480;2023-04-03T05:13:11;7.13;;;2.30;;
40997;SDS011;26740;45.944;12.480;2023-04-03T05:15:37;6.07;;;2.65;;
40997;SDS011;26740;45.944;12.480;2023-04-03T05:18:02;6.95;;;2.58;;
40997;SDS011;26740;45.944;12.480;2023-04-03T05:20:28;7.53;;;2.97;;
40997;SDS011;26740;45.944;12.480;2023-04-03T05:22:53;3.95;;;2.38;;
40997;SDS011;26740;45.944;12.480;2023-04-03T05:25:19;3.67;;;2.15;;
40997;SDS011;26740;45.944;12.480;2023-04-03T05:27:45;5.70;;;2.03;;
40997;SDS011;26740;45.944;12.480;2023-04-03T05:30:11;3.78;;;1.90;;
40997;SDS011;26740;45.944;12.480;2023-04-03T05:32:36;5.35;;;1.85;;
40997;SDS011;26740;45.944;12.480;2023-04-03T05:35:02;4.50;;;1.70;;
40997;SDS011;26740;45.944;12.480;2023-04-03T05:37:27;2.42;;;2.00;;
40997;SDS011;26740;45.944;12.480;2023-04-03T05:39:53;9.88;;;2.85;;
40997;SDS011;26740;45.944;12.480;2023-04-03T05:42:19;7.22;;;2.22;;
40997;SDS011;26740;45.944;12.480;2023-04-03T05:44:44;2.50;;;1.65;;
40997;SDS011;26740;45.944;12.480;2023-04-03T05:47:12;4.63;;;2.08;;
40997;SDS011;26740;45.944;12.480;2023-04-03T05:49:38;3.40;;;1.65;;
40997;SDS011;26740;45.944;12.480;2023-04-03T05:52:06;5.35;;;1.50;;
40997;SDS011;26740;45.944;12.480;2023-04-03T05:54:37;2.58;;;1.40;;
40997;SDS011;26740;45.944;12.480;2023-04-03T05:57:02;3.35;;;2.03;;
40997;SDS011;26740;45.944;12.480;2023-04-03T05:59:28;4.03;;;1.63;;
40997;SDS011;26740;45.944;12.480;2023-04-03T06:01:53;6.57;;;2.28;;
40997;SDS011;26740;45.944;12.480;2023-04-03T06:04:19;7.20;;;2.08;;
40997;SDS011;26740;45.944;12.480;2023-04-03T06:09:13;9.07;;;2.00;;
40997;SDS011;26740;45.944;12.480;2023-04-03T06:11:39;2.90;;;1.80;;
40997;SDS011;26740;45.944;12.480;2023-04-03T06:14:07;2.88;;;1.70;;
40997;SDS011;26740;45.944;12.480;2023-04-03T06:16:33;2.80;;;1.40;;
40997;SDS011;26740;45.944;12.480;2023-04-03T06:18:59;2.10;;;1.25;;
40997;SDS011;26740;45.944;12.480;2023-04-03T06:21:24;2.92;;;2.38;;
40997;SDS011;26740;45.944;12.480;2023-04-03T06:23:51;3.88;;;1.77;;
40997;SDS011;26740;45.944;12.480;2023-04-03T06:26:17;2.38;;;0.95;;
40997;SDS011;26740;45.944;12.480;2023-04-03T06:28:42;1.75;;;0.80;;
40997;SDS011;26740;45.944;12.480;2023-04-03T06:31:08;0.95;;;0.52;;
40997;SDS011;26740;45.944;12.480;2023-04-03T06:33:34;1.80;;;0.70;;
40997;SDS011;26740;45.944;12.480;2023-04-03T06:36:02;1.30;;;0.80;;
40997;SDS011;26740;45.944;12.480;2023-04-03T06:38:30;1.88;;;0.90;;
40997;SDS011;26740;45.944;12.480;2023-04-03T06:40:56;3.60;;;1.90;;
40997;SDS011;26740;45.944;12.480;2023-04-03T06:43:22;1.85;;;1.08;;
40997;SDS011;26740;45.944;12.480;2023-04-03T06:45:48;3.75;;;1.15;;
40997;SDS011;26740;45.944;12.480;2023-04-03T06:48:13;1.75;;;0.77;;
40997;SDS011;26740;45.944;12.480;2023-04-03T06:50:39;0.63;;;0.50;;
40997;SDS011;26740;45.944;12.480;2023-04-03T06:53:05;1.52;;;0.38;;
40997;SDS011;26740;45.944;12.480;2023-04-03T06:55:31;2.92;;;0.65;;
40997;SDS011;26740;45.944;12.480;2023-04-03T06:57:56;2.13;;;0.40;;
40997;SDS011;26740;45.944;12.480;2023-04-03T07:00:22;0.88;;;0.50;;
40997;SDS011;26740;45.944;12.480;2023-04-03T07:02:47;1.38;;;0.40;;
40997;SDS011;26740;45.944;12.480;2023-04-03T07:05:13;0.70;;;0.30;;
40997;SDS011;26740;45.944;12.480;2023-04-03T07:07:39;1.35;;;0.40;;
40997;SDS011;26740;45.944;12.480;2023-04-03T07:10:05;0.60;;;0.30;;
40997;SDS011;26740;45.944;12.480;2023-04-03T07:12:32;0.40;;;0.32;;
40997;SDS011;26740;45.944;12.480;2023-04-03T07:14:58;1.60;;;0.60;;
40997;SDS011;26740;45.944;12.480;2023-04-03T07:17:23;1.05;;;0.40;;
40997;SDS011;26740;45.944;12.480;2023-04-03T07:19:50;1.45;;;0.50;;
40997;SDS011;26740;45.944;12.480;2023-04-03T07:22:16;1.30;;;0.47;;
40997;SDS011;26740;45.944;12.480;2023-04-03T07:24:42;1.23;;;0.30;;
40997;SDS011;26740;45.944;12.480;2023-04-03T07:27:07;1.83;;;0.30;;
40997;SDS011;26740;45.944;12.480;2023-04-03T07:29:34;1.00;;;0.50;;
40997;SDS011;26740;45.944;12.480;2023-04-03T07:32:00;2.17;;;0.40;;
40997;SDS011;26740;45.944;12.480;2023-04-03T07:34:26;4.55;;;0.50;;
40997;SDS011;26740;45.944;12.480;2023-04-03T07:36:51;0.80;;;0.40;;
40997;SDS011;26740;45.944;12.480;2023-04-03T07:39:17;0.88;;;0.60;;
40997;SDS011;26740;45.944;12.480;2023-04-03T07:41:43;0.60;;;0.30;;
40997;SDS011;26740;45.944;12.480;2023-04-03T07:44:08;2.03;;;0.73;;
40997;SDS011;26740;45.944;12.480;2023-04-03T07:46:37;1.70;;;0.60;;
40997;SDS011;26740;45.944;12.480;2023-04-03T07:49:03;1.35;;;0.50;;
40997;SDS011;26740;45.944;12.480;2023-04-03T07:51:29;1.88;;;0.50;;
40997;SDS011;26740;45.944;12.480;2023-04-03T07:53:55;1.00;;;0.30;;
40997;SDS011;26740;45.944;12.480;2023-04-03T07:58:46;2.13;;;0.53;;
40997;SDS011;26740;45.944;12.480;2023-04-03T08:01:11;1.35;;;0.70;;
40997;SDS011;26740;45.944;12.480;2023-04-03T08:03:38;0.80;;;0.50;;
40997;SDS011;26740;45.944;12.480;2023-04-03T08:06:04;1.90;;;0.75;;
40997;SDS011;26740;45.944;12.480;2023-04-03T08:08:31;0.88;;;0.65;;
40997;SDS011;26740;45.944;12.480;2023-04-03T08:10:58;0.73;;;0.47;;
40997;SDS011;26740;45.944;12.480;2023-04-03T08:13:25;1.50;;;0.50;;
40997;SDS011;26740;45.944;12.480;2023-04-03T08:15:50;1.27;;;0.75;;
40997;SDS011;26740;45.944;12.480;2023-04-03T08:18:16;1.05;;;0.52;;
40997;SDS011;26740;45.944;12.480;2023-04-03T08:20:43;0.75;;;0.40;;
40997;SDS011;26740;45.944;12.480;2023-04-03T08:23:09;2.25;;;0.43;;
40997;SDS011;26740;45.944;12.480;2023-04-03T08:25:38;1.42;;;0.50;;
40997;SDS011;26740;45.944;12.480;2023-04-03T08:28:05;0.50;;;0.38;;
40997;SDS011;26740;45.944;12.480;2023-04-03T08:30:31;0.80;;;0.60;;
40997;SDS011;26740;45.944;12.480;2023-04-03T08:32:57;1.02;;;0.40;;
40997;SDS011;26740;45.944;12.480;2023-04-03T08:35:25;0.70;;;0.30;;
40997;SDS011;26740;45.944;12.480;2023-04-03T08:37:50;0.98;;;0.50;;
40997;SDS011;26740;45.944;12.480;2023-04-03T08:40:16;1.05;;;0.40;;
40997;SDS011;26740;45.944;12.480;2023-04-03T08:45:51;0.90;;;0.60;;
40997;SDS011;26740;45.944;12.480;2023-04-03T08:48:39;3.53;;;0.77;;
40997;SDS011;26740;45.944;12.480;2023-04-03T08:51:13;1.20;;;0.40;;
40997;SDS011;26740;45.944;12.480;2023-04-03T08:53:45;1.42;;;0.70;;
40997;SDS011;26740;45.944;12.480;2023-04-03T08:56:27;0.88;;;0.50;;
40997;SDS011;26740;45.944;12.480;2023-04-03T08:58:58;1.20;;;0.57;;
40997;SDS011;26740;45.944;12.480;2023-04-03T09:03:57;1.70;;;0.68;;
40997;SDS011;26740;45.944;12.480;2023-04-03T09:06:26;0.85;;;0.60;;
40997;SDS011;26740;45.944;12.480;2023-04-03T09:11:51;2.15;;;0.47;;
40997;SDS011;26740;45.944;12.480;2023-04-03T09:14:26;0.90;;;0.77;;
40997;SDS011;26740;45.944;12.480;2023-04-03T09:17:15;0.80;;;0.40;;
40997;SDS011;26740;45.944;12.480;2023-04-03T09:19:56;1.98;;;0.75;;
40997;SDS011;26740;45.944;12.480;2023-04-03T09:22:31;1.38;;;0.50;;
40997;SDS011;26740;45.944;12.480;2023-04-03T09:25:00;0.80;;;0.52;;
40997;SDS011;26740;45.944;12.480;2023-04-03T09:27:35;0.90;;;0.73;;
40997;SDS011;26740;45.944;12.480;2023-04-03T09:30:00;1.80;;;0.57;;
40997;SDS011;26740;45.944;12.480;2023-04-03T09:32:28;1.15;;;0.43;;
40997;SDS011;26740;45.944;12.480;2023-04-03T09:35:01;2.80;;;0.52;;
40997;SDS011;26740;45.944;12.480;2023-04-03T09:37:37;2.47;;;0.40;;
40997;SDS011;26740;45.944;12.480;2023-04-03T09:40:06;3.08;;;0.50;;
40997;SDS011;26740;45.944;12.480;2023-04-03T09:42:59;0.77;;;0.50;;
40997;SDS011;26740;45.944;12.480;2023-04-03T09:45:45;0.98;;;0.45;;
40997;SDS011;26740;45.944;12.480;2023-04-03T09:50:38;1.20;;;0.60;;
40997;SDS011;26740;45.944;12.480;2023-04-03T09:53:25;1.13;;;0.60;;
40997;SDS011;26740;45.944;12.480;2023-04-03T09:55:51;1.52;;;0.55;;
40997;SDS011;26740;45.944;12.480;2023-04-03T09:58:24;1.98;;;0.52;;
40997;SDS011;26740;45.944;12.480;2023-04-03T10:00:58;0.47;;;0.30;;
40997;SDS011;26740;45.944;12.480;2023-04-03T10:06:00;1.42;;;0.40;;
40997;SDS011;26740;45.944;12.480;2023-04-03T10:08:31;0.98;;;0.40;;
40997;SDS011;26740;45.944;12.480;2023-04-03T10:11:11;2.22;;;0.60;;
40997;SDS011;26740;45.944;12.480;2023-04-03T10:13:55;2.35;;;0.50;;
40997;SDS011;26740;45.944;12.480;2023-04-03T10:19:40;2.35;;;0.60;;
40997;SDS011;26740;45.944;12.480;2023-04-03T10:22:16;1.00;;;0.70;;
40997;SDS011;26740;45.944;12.480;2023-04-03T10:30:34;2.22;;;0.70;;
40997;SDS011;26740;45.944;12.480;2023-04-03T10:36:00;1.42;;;0.80;;
40997;SDS011;26740;45.944;12.480;2023-04-03T10:41:59;2.90;;;0.70;;
40997;SDS011;26740;45.944;12.480;2023-04-03T10:44:20;0.90;;;0.70;;
40997;SDS011;26740;45.944;12.480;2023-04-03T10:52:14;1.75;;;0.70;;
40997;SDS011;26740;45.944;12.480;2023-04-03T10:57:31;1.58;;;0.63;;
40997;SDS011;26740;45.944;12.480;2023-04-03T10:59:58;2.90;;;0.50;;
40997;SDS011;26740;45.944;12.480;2023-04-03T11:04:58;1.83;;;0.60;;
40997;SDS011;26740;45.944;12.480;2023-04-03T11:07:28;0.90;;;0.70;;
40997;SDS011;26740;45.944;12.480;2023-04-03T11:10:21;3.10;;;0.98;;
40997;SDS011;26740;45.944;12.480;2023-04-03T11:12:52;1.67;;;1.00;;
40997;SDS011;26740;45.944;12.480;2023-04-03T11:15:26;0.90;;;0.60;;
40997;SDS011;26740;45.944;12.480;2023-04-03T11:17:58;2.13;;;0.90;;
40997;SDS011;26740;45.944;12.480;2023-04-03T11:23:43;1.25;;;0.80;;
40997;SDS011;26740;45.944;12.480;2023-04-03T11:26:17;1.10;;;0.50;;
40997;SDS011;26740;45.944;12.480;2023-04-03T11:28:45;6.47;;;0.95;;
40997;SDS011;26740;45.944;12.480;2023-04-03T11:37:06;1.85;;;0.35;;
40997;SDS011;26740;45.944;12.480;2023-04-03T11:40:31;1.85;;;0.88;;
40997;SDS011;26740;45.944;12.480;2023-04-03T11:42:52;1.42;;;0.80;;
40997;SDS011;26740;45.944;12.480;2023-04-03T11:45:31;3.13;;;0.93;;
40997;SDS011;26740;45.944;12.480;2023-04-03T11:48:09;1.10;;;0.85;;
40997;SDS011;26740;45.944;12.480;2023-04-03T11:50:55;1.13;;;0.70;;
40997;SDS011;26740;45.944;12.480;2023-04-03T11:53:35;1.40;;;0.43;;
40997;SDS011;26740;45.944;12.480;2023-04-03T12:04:14;1.70;;;0.55;;
40997;SDS011;26740;45.944;12.480;2023-04-03T12:06:47;1.00;;;0.70;;
40997;SDS011;26740;45.944;12.480;2023-04-03T12:09:24;0.70;;;0.60;;
40997;SDS011;26740;45.944;12.480;2023-04-03T12:11:56;0.77;;;0.60;;
40997;SDS011;26740;45.944;12.480;2023-04-03T12:14:24;0.82;;;0.50;;
40997;SDS011;26740;45.944;12.480;2023-04-03T12:16:51;0.80;;;0.60;;
40997;SDS011;26740;45.944;12.480;2023-04-03T12:19:32;1.13;;;0.55;;
40997;SDS011;26740;45.944;12.480;2023-04-03T12:22:14;1.02;;;0.70;;
40997;SDS011;26740;45.944;12.480;2023-04-03T12:24:42;2.85;;;0.55;;
40997;SDS011;26740;45.944;12.480;2023-04-03T12:27:26;4.55;;;0.63;;
40997;SDS011;26740;45.944;12.480;2023-04-03T12:46:51;2.10;;;0.43;;
40997;SDS011;26740;45.944;12.480;2023-04-03T12:49:22;1.63;;;0.55;;
40997;SDS011;26740;45.944;12.480;2023-04-03T12:51:58;2.72;;;0.60;;
40997;SDS011;26740;45.944;12.480;2023-04-03T12:57:17;1.10;;;0.70;;
40997;SDS011;26740;45.944;12.480;2023-04-03T12:59:49;1.00;;;0.60;;
40997;SDS011;26740;45.944;12.480;2023-04-03T13:04:49;0.73;;;0.47;;
40997;SDS011;26740;45.944;12.480;2023-04-03T13:07:20;0.60;;;0.45;;
40997;SDS011;26740;45.944;12.480;2023-04-03T13:10:19;2.92;;;0.70;;
40997;SDS011;26740;45.944;12.480;2023-04-03T13:12:48;4.68;;;0.70;;
40997;SDS011;26740;45.944;12.480;2023-04-03T13:15:29;1.25;;;0.43;;
40997;SDS011;26740;45.944;12.480;2023-04-03T13:18:05;0.65;;;0.40;;
40997;SDS011;26740;45.944;12.480;2023-04-03T13:20:34;2.25;;;0.47;;
40997;SDS011;26740;45.944;12.480;2023-04-03T13:23:02;0.57;;;0.40;;
40997;SDS011;26740;45.944;12.480;2023-04-03T13:25:33;0.80;;;0.40;;
40997;SDS011;26740;45.944;12.480;2023-04-03T13:28:01;1.10;;;0.40;;
40997;SDS011;26740;45.944;12.480;2023-04-03T13:30:30;1.00;;;0.30;;
40997;SDS011;26740;45.944;12.480;2023-04-03T13:32:59;0.60;;;0.30;;
40997;SDS011;26740;45.944;12.480;2023-04-03T13:38:25;1.30;;;0.30;;
40997;SDS011;26740;45.944;12.480;2023-04-03T13:43:30;1.40;;;0.20;;
40997;SDS011;26740;45.944;12.480;2023-04-03T13:46:03;0.50;;;0.30;;
40997;SDS011;26740;45.944;12.480;2023-04-03T13:48:43;2.60;;;0.35;;
40997;SDS011;26740;45.944;12.480;2023-04-03T13:53:42;0.68;;;0.30;;
40997;SDS011;26740;45.944;12.480;2023-04-03T13:58:52;0.32;;;0.20;;
40997;SDS011;26740;45.944;12.480;2023-04-03T14:01:20;0.50;;;0.38;;
40997;SDS011;26740;45.944;12.480;2023-04-03T14:03:55;0.47;;;0.28;;
40997;SDS011;26740;45.944;12.480;2023-04-03T14:06:22;2.63;;;0.25;;
40997;SDS011;26740;45.944;12.480;2023-04-03T14:08:49;0.73;;;0.25;;
40997;SDS011;26740;45.944;12.480;2023-04-03T14:11:20;2.10;;;0.30;;
40997;SDS011;26740;45.944;12.480;2023-04-03T14:13:49;0.75;;;0.30;;
40997;SDS011;26740;45.944;12.480;2023-04-03T14:16:20;2.30;;;0.32;;
40997;SDS011;26740;45.944;12.480;2023-04-03T14:18:48;2.67;;;0.32;;
40997;SDS011;26740;45.944;12.480;2023-04-03T14:21:15;1.08;;;0.30;;
40997;SDS011;26740;45.944;12.480;2023-04-03T14:23:42;0.70;;;0.30;;
40997;SDS011;26740;45.944;12.480;2023-04-03T14:26:18;1.45;;;0.30;;
40997;SDS011;26740;45.944;12.480;2023-04-03T14:28:48;1.02;;;0.20;;
40997;SDS011;26740;45.944;12.480;2023-04-03T14:31:16;1.23;;;0.30;;
40997;SDS011;26740;45.944;12.480;2023-04-03T14:33:42;0.47;;;0.20;;
40997;SDS011;26740;45.944;12.480;2023-04-03T14:36:20;0.50;;;0.20;;
40997;SDS011;26740;45.944;12.480;2023-04-03T14:38:47;1.08;;;0.15;;
40997;SDS011;26740;45.944;12.480;2023-04-03T14:41:15;1.13;;;0.35;;
40997;SDS011;26740;45.944;12.480;2023-04-03T14:43:42;0.60;;;0.30;;
40997;SDS011;26740;45.944;12.480;2023-04-03T14:46:42;2.17;;;0.30;;
40997;SDS011;26740;45.944;12.480;2023-04-03T14:49:01;2.20;;;0.22;;
40997;SDS011;26740;45.944;12.480;2023-04-03T14:51:32;0.55;;;0.17;;
40997;SDS011;26740;45.944;12.480;2023-04-03T14:53:59;0.80;;;0.40;;
40997;SDS011;26740;45.944;12.480;2023-04-03T14:56:26;0.43;;;0.30;;
40997;SDS011;26740;45.944;12.480;2023-04-03T14:58:58;1.00;;;0.50;;
40997;SDS011;26740;45.944;12.480;2023-04-03T15:01:26;3.40;;;0.38;;
40997;SDS011;26740;45.944;12.480;2023-04-03T15:03:53;2.10;;;0.20;;
40997;SDS011;26740;45.944;12.480;2023-04-03T15:06:18;0.57;;;0.20;;
40997;SDS011;26740;45.944;12.480;2023-04-03T15:08:45;1.10;;;0.22;;
40997;SDS011;26740;45.944;12.480;2023-04-03T15:11:12;3.47;;;0.30;;
40997;SDS011;26740;45.944;12.480;2023-04-03T15:13:38;0.75;;;0.10;;
40997;SDS011;26740;45.944;12.480;2023-04-03T15:16:05;4.45;;;0.30;;
40997;SDS011;26740;45.944;12.480;2023-04-03T15:18:37;1.40;;;0.75;;
40997;SDS011;26740;45.944;12.480;2023-04-03T15:21:03;1.75;;;0.25;;
40997;SDS011;26740;45.944;12.480;2023-04-03T15:23:29;7.88;;;0.20;;
40997;SDS011;26740;45.944;12.480;2023-04-03T15:25:55;6.63;;;0.20;;
40997;SDS011;26740;45.944;12.480;2023-04-03T15:28:28;1.25;;;0.20;;
40997;SDS011;26740;45.944;12.480;2023-04-03T15:30:57;0.50;;;0.22;;
40997;SDS011;26740;45.944;12.480;2023-04-03T15:33:24;2.08;;;0.20;;
40997;SDS011;26740;45.944;12.480;2023-04-03T15:35:50;0.50;;;0.20;;
40997;SDS011;26740;45.944;12.480;2023-04-03T15:38:16;7.22;;;1.08;;
40997;SDS011;26740;45.944;12.480;2023-04-03T15:40:41;5.05;;;0.20;;
40997;SDS011;26740;45.944;12.480;2023-04-03T15:43:08;1.85;;;0.50;;
40997;SDS011;26740;45.944;12.480;2023-04-03T15:45:35;4.30;;;0.20;;
40997;SDS011;26740;45.944;12.480;2023-04-03T15:48:03;0.35;;;0.10;;
40997;SDS011;26740;45.944;12.480;2023-04-03T15:50:30;2.22;;;0.20;;
40997;SDS011;26740;45.944;12.480;2023-04-03T15:52:56;2.85;;;0.13;;
40997;SDS011;26740;45.944;12.480;2023-04-03T15:55:27;3.88;;;0.20;;
40997;SDS011;26740;45.944;12.480;2023-04-03T15:57:54;1.17;;;0.17;;
40997;SDS011;26740;45.944;12.480;2023-04-03T16:00:20;0.50;;;0.20;;
40997;SDS011;26740;45.944;12.480;2023-04-03T16:02:47;3.35;;;0.60;;
40997;SDS011;26740;45.944;12.480;2023-04-03T16:05:16;2.42;;;0.30;;
40997;SDS011;26740;45.944;12.480;2023-04-03T16:07:43;2.58;;;0.30;;
40997;SDS011;26740;45.944;12.480;2023-04-03T16:10:10;1.52;;;0.40;;
40997;SDS011;26740;45.944;12.480;2023-04-03T16:12:37;2.53;;;0.43;;
40997;SDS011;26740;45.944;12.480;2023-04-03T16:15:02;1.58;;;0.25;;
40997;SDS011;26740;45.944;12.480;2023-04-03T16:17:29;3.83;;;1.15;;
40997;SDS011;26740;45.944;12.480;2023-04-03T16:19:56;3.65;;;0.40;;
40997;SDS011;26740;45.944;12.480;2023-04-03T16:22:22;4.82;;;0.50;;
40997;SDS011;26740;45.944;12.480;2023-04-03T16:24:50;4.03;;;0.20;;